sensor_id;sensor_type;location;lat;lon;timestamp;temperature;humidity
24338;DHT22;12457;50.832;4.346;2022-10-17T00:01:02;16.20;99.90
24338;DHT22;12457;50.832;4.346;2022-10-17T00:03:28;16.20;99.90
24338;DHT22;12457;50.832;4.346;2022-10-17T00:05:54;16.20;99.90
24338;DHT22;12457;50.832;4.346;2022-10-17T00:08:20;16.20;99.90
24338;DHT22;12457;50.832;4.346;2022-10-17T00:10:58;16.20;99.90
24338;DHT22;12457;50.832;4.346;2022-10-17T00:13:24;16.20;99.90
24338;DHT22;12457;50.832;4.346;2022-10-17T00:15:50;16.20;99.90
24338;DHT22;12457;50.832;4.346;2022-10-17T00:18:16;16.20;99.90
24338;DHT22;12457;50.832;4.346;2022-10-17T00:20:42;16.20;99.90
24338;DHT22;12457;50.832;4.346;2022-10-17T00:23:07;16.30;99.90
24338;DHT22;12457;50.832;4.346;2022-10-17T00:25:33;16.40;99.90
24338;DHT22;12457;50.832;4.346;2022-10-17T00:27:58;16.40;99.90
24338;DHT22;12457;50.832;4.346;2022-10-17T00:30:24;16.40;99.90
24338;DHT22;12457;50.832;4.346;2022-10-17T00:32:50;16.40;99.90
24338;DHT22;12457;50.832;4.346;2022-10-17T00:35:15;16.40;99.90
24338;DHT22;12457;50.832;4.346;2022-10-17T00:37:41;16.50;99.90
24338;DHT22;12457;50.832;4.346;2022-10-17T00:40:07;16.50;99.90
24338;DHT22;12457;50.832;4.346;2022-10-17T00:42:33;16.50;99.90
24338;DHT22;12457;50.832;4.346;2022-10-17T00:45:18;16.50;99.90
24338;DHT22;12457;50.832;4.346;2022-10-17T00:47:48;16.60;99.90
24338;DHT22;12457;50.832;4.346;2022-10-17T00:50:14;16.60;99.90
24338;DHT22;12457;50.832;4.346;2022-10-17T00:52:40;16.60;99.90
24338;DHT22;12457;50.832;4.346;2022-10-17T00:55:17;16.60;99.90
24338;DHT22;12457;50.832;4.346;2022-10-17T00:57:44;16.60;99.90
24338;DHT22;12457;50.832;4.346;2022-10-17T01:00:11;16.60;99.90
24338;DHT22;12457;50.832;4.346;2022-10-17T01:02:37;16.60;99.90
24338;DHT22;12457;50.832;4.346;2022-10-17T01:05:04;16.60;99.90
24338;DHT22;12457;50.832;4.346;2022-10-17T01:07:31;16.60;99.90
24338;DHT22;12457;50.832;4.346;2022-10-17T01:09:57;16.60;99.90
24338;DHT22;12457;50.832;4.346;2022-10-17T01:18:12;16.60;99.90
24338;DHT22;12457;50.832;4.346;2022-10-17T01:26:41;16.60;99.90
24338;DHT22;12457;50.832;4.346;2022-10-17T01:31:54;16.60;99.90
24338;DHT22;12457;50.832;4.346;2022-10-17T01:34:33;16.60;99.90
24338;DHT22;12457;50.832;4.346;2022-10-17T01:42:44;16.60;99.90
24338;DHT22;12457;50.832;4.346;2022-10-17T01:47:59;16.70;99.90
24338;DHT22;12457;50.832;4.346;2022-10-17T01:53:35;16.70;99.90
24338;DHT22;12457;50.832;4.346;2022-10-17T01:56:06;16.70;99.90
24338;DHT22;12457;50.832;4.346;2022-10-17T01:58:40;16.70;99.90
24338;DHT22;12457;50.832;4.346;2022-10-17T02:01:09;16.80;99.90
24338;DHT22;12457;50.832;4.346;2022-10-17T02:03:36;16.80;99.90
24338;DHT22;12457;50.832;4.346;2022-10-17T02:06:04;16.90;99.90
24338;DHT22;12457;50.832;4.346;2022-10-17T02:11:14;16.90;99.90
24338;DHT22;12457;50.832;4.346;2022-10-17T02:14:01;17.00;99.90
24338;DHT22;12457;50.832;4.346;2022-10-17T02:19:29;17.10;99.90
24338;DHT22;12457;50.832;4.346;2022-10-17T02:22:34;17.10;99.90
24338;DHT22;12457;50.832;4.346;2022-10-17T02:25:09;17.20;99.90
24338;DHT22;12457;50.832;4.346;2022-10-17T02:30:32;17.20;99.90
24338;DHT22;12457;50.832;4.346;2022-10-17T02:33:06;17.20;99.90
24338;DHT22;12457;50.832;4.346;2022-10-17T02:35:37;17.10;99.90
24338;DHT22;12457;50.832;4.346;2022-10-17T02:38:07;17.10;99.90
24338;DHT22;12457;50.832;4.346;2022-10-17T02:40:35;17.10;99.90
24338;DHT22;12457;50.832;4.346;2022-10-17T02:43:01;17.20;99.90
24338;DHT22;12457;50.832;4.346;2022-10-17T02:45:28;17.20;99.90
24338;DHT22;12457;50.832;4.346;2022-10-17T02:48:00;17.20;99.90
24338;DHT22;12457;50.832;4.346;2022-10-17T02:51:15;17.30;99.90
24338;DHT22;12457;50.832;4.346;2022-10-17T02:53:32;17.20;99.90
24338;DHT22;12457;50.832;4.346;2022-10-17T02:56:05;17.20;99.90
24338;DHT22;12457;50.832;4.346;2022-10-17T02:58:33;17.20;99.90
24338;DHT22;12457;50.832;4.346;2022-10-17T03:01:00;17.30;99.90
24338;DHT22;12457;50.832;4.346;2022-10-17T03:03:29;17.30;99.90
24338;DHT22;12457;50.832;4.346;2022-10-17T03:05:55;17.40;99.90
24338;DHT22;12457;50.832;4.346;2022-10-17T03:08:21;17.30;99.90
24338;DHT22;12457;50.832;4.346;2022-10-17T03:10:48;17.30;99.90
24338;DHT22;12457;50.832;4.346;2022-10-17T03:13:15;17.40;99.90
24338;DHT22;12457;50.832;4.346;2022-10-17T03:15:40;17.30;99.90
24338;DHT22;12457;50.832;4.346;2022-10-17T03:18:06;17.30;99.90
24338;DHT22;12457;50.832;4.346;2022-10-17T03:20:32;17.40;99.90
24338;DHT22;12457;50.832;4.346;2022-10-17T03:22:57;17.40;99.90
24338;DHT22;12457;50.832;4.346;2022-10-17T03:25:23;17.40;99.90
24338;DHT22;12457;50.832;4.346;2022-10-17T03:27:50;17.50;99.90
24338;DHT22;12457;50.832;4.346;2022-10-17T03:30:17;17.50;99.90
24338;DHT22;12457;50.832;4.346;2022-10-17T03:32:43;17.40;99.90
24338;DHT22;12457;50.832;4.346;2022-10-17T03:35:09;17.40;99.90
24338;DHT22;12457;50.832;4.346;2022-10-17T03:37:35;17.40;99.90
24338;DHT22;12457;50.832;4.346;2022-10-17T03:40:00;17.50;99.90
24338;DHT22;12457;50.832;4.346;2022-10-17T03:42:26;17.40;99.90
24338;DHT22;12457;50.832;4.346;2022-10-17T03:44:52;17.40;99.90
24338;DHT22;12457;50.832;4.346;2022-10-17T03:47:17;17.40;99.90
24338;DHT22;12457;50.832;4.346;2022-10-17T03:49:43;17.30;99.90
24338;DHT22;12457;50.832;4.346;2022-10-17T03:52:12;17.40;99.90
24338;DHT22;12457;50.832;4.346;2022-10-17T03:54:39;17.40;99.90
24338;DHT22;12457;50.832;4.346;2022-10-17T03:57:04;17.30;99.90
24338;DHT22;12457;50.832;4.346;2022-10-17T03:59:30;17.30;99.90
24338;DHT22;12457;50.832;4.346;2022-10-17T04:01:56;17.30;99.90
24338;DHT22;12457;50.832;4.346;2022-10-17T04:04:21;17.30;99.90
24338;DHT22;12457;50.832;4.346;2022-10-17T04:06:47;17.40;99.90
24338;DHT22;12457;50.832;4.346;2022-10-17T04:09:13;17.40;99.90
24338;DHT22;12457;50.832;4.346;2022-10-17T04:11:40;17.30;99.90
24338;DHT22;12457;50.832;4.346;2022-10-17T04:14:05;17.30;99.90
24338;DHT22;12457;50.832;4.346;2022-10-17T04:16:31;17.30;99.90
24338;DHT22;12457;50.832;4.346;2022-10-17T04:18:58;17.20;99.90
24338;DHT22;12457;50.832;4.346;2022-10-17T04:21:25;17.20;99.90
24338;DHT22;12457;50.832;4.346;2022-10-17T04:23:55;17.20;99.90
24338;DHT22;12457;50.832;4.346;2022-10-17T04:26:21;17.30;99.90
24338;DHT22;12457;50.832;4.346;2022-10-17T04:28:48;17.30;99.90
24338;DHT22;12457;50.832;4.346;2022-10-17T04:31:16;17.30;99.90
24338;DHT22;12457;50.832;4.346;2022-10-17T04:33:49;17.20;99.90
24338;DHT22;12457;50.832;4.346;2022-10-17T04:36:20;17.20;99.90
24338;DHT22;12457;50.832;4.346;2022-10-17T04:38:47;17.30;99.90
24338;DHT22;12457;50.832;4.346;2022-10-17T04:41:15;17.20;99.90
24338;DHT22;12457;50.832;4.346;2022-10-17T04:43:42;17.20;99.90
24338;DHT22;12457;50.832;4.346;2022-10-17T04:46:11;17.10;99.90
24338;DHT22;12457;50.832;4.346;2022-10-17T04:48:41;17.20;99.90
24338;DHT22;12457;50.832;4.346;2022-10-17T04:51:11;17.20;99.90
24338;DHT22;12457;50.832;4.346;2022-10-17T04:53:40;17.20;99.90
24338;DHT22;12457;50.832;4.346;2022-10-17T04:56:11;17.10;99.90
24338;DHT22;12457;50.832;4.346;2022-10-17T04:58:38;17.10;99.90
24338;DHT22;12457;50.832;4.346;2022-10-17T05:01:08;17.20;99.90
24338;DHT22;12457;50.832;4.346;2022-10-17T05:03:34;17.20;99.90
24338;DHT22;12457;50.832;4.346;2022-10-17T05:06:10;17.10;99.90
24338;DHT22;12457;50.832;4.346;2022-10-17T05:08:35;17.10;99.90
24338;DHT22;12457;50.832;4.346;2022-10-17T05:11:02;17.10;99.90
24338;DHT22;12457;50.832;4.346;2022-10-17T05:13:28;17.10;99.90
24338;DHT22;12457;50.832;4.346;2022-10-17T05:15:57;17.10;99.90
24338;DHT22;12457;50.832;4.346;2022-10-17T05:18:23;17.20;99.90
24338;DHT22;12457;50.832;4.346;2022-10-17T05:20:49;17.30;99.90
24338;DHT22;12457;50.832;4.346;2022-10-17T05:23:14;17.30;99.90
24338;DHT22;12457;50.832;4.346;2022-10-17T05:25:40;17.30;99.90
24338;DHT22;12457;50.832;4.346;2022-10-17T05:28:06;17.30;99.90
24338;DHT22;12457;50.832;4.346;2022-10-17T05:30:33;17.30;99.90
24338;DHT22;12457;50.832;4.346;2022-10-17T05:32:59;17.20;99.90
24338;DHT22;12457;50.832;4.346;2022-10-17T05:35:25;17.30;99.90
24338;DHT22;12457;50.832;4.346;2022-10-17T05:37:50;17.30;99.90
24338;DHT22;12457;50.832;4.346;2022-10-17T05:40:16;17.30;99.90
24338;DHT22;12457;50.832;4.346;2022-10-17T05:42:46;17.30;99.90
24338;DHT22;12457;50.832;4.346;2022-10-17T05:45:13;17.40;99.90
24338;DHT22;12457;50.832;4.346;2022-10-17T05:47:39;17.40;99.90
24338;DHT22;12457;50.832;4.346;2022-10-17T05:50:06;17.40;99.90
24338;DHT22;12457;50.832;4.346;2022-10-17T05:52:32;17.40;99.90
24338;DHT22;12457;50.832;4.346;2022-10-17T05:54:58;17.40;99.90
24338;DHT22;12457;50.832;4.346;2022-10-17T05:57:24;17.40;99.90
24338;DHT22;12457;50.832;4.346;2022-10-17T05:59:50;17.50;99.90
24338;DHT22;12457;50.832;4.346;2022-10-17T06:02:16;17.50;99.90
24338;DHT22;12457;50.832;4.346;2022-10-17T06:04:41;17.50;99.90
24338;DHT22;12457;50.832;4.346;2022-10-17T06:07:13;17.50;99.90
24338;DHT22;12457;50.832;4.346;2022-10-17T06:09:38;17.60;99.90
24338;DHT22;12457;50.832;4.346;2022-10-17T06:12:05;17.50;99.90
24338;DHT22;12457;50.832;4.346;2022-10-17T06:14:31;17.50;99.90
24338;DHT22;12457;50.832;4.346;2022-10-17T06:16:56;17.50;99.90
24338;DHT22;12457;50.832;4.346;2022-10-17T06:19:22;17.50;99.90
24338;DHT22;12457;50.832;4.346;2022-10-17T06:21:48;17.50;99.90
24338;DHT22;12457;50.832;4.346;2022-10-17T06:24:13;17.50;99.90
24338;DHT22;12457;50.832;4.346;2022-10-17T06:26:39;17.50;99.90
24338;DHT22;12457;50.832;4.346;2022-10-17T06:29:04;17.50;99.90
24338;DHT22;12457;50.832;4.346;2022-10-17T06:31:30;17.40;99.90
24338;DHT22;12457;50.832;4.346;2022-10-17T06:33:55;17.50;99.90
24338;DHT22;12457;50.832;4.346;2022-10-17T06:36:22;17.50;99.90
24338;DHT22;12457;50.832;4.346;2022-10-17T06:38:48;17.50;99.90
24338;DHT22;12457;50.832;4.346;2022-10-17T06:41:15;17.50;99.90
24338;DHT22;12457;50.832;4.346;2022-10-17T06:43:44;17.60;99.90
24338;DHT22;12457;50.832;4.346;2022-10-17T06:46:14;17.60;99.90
24338;DHT22;12457;50.832;4.346;2022-10-17T06:48:40;17.70;99.90
24338;DHT22;12457;50.832;4.346;2022-10-17T06:51:06;17.80;99.90
24338;DHT22;12457;50.832;4.346;2022-10-17T06:53:34;17.80;99.90
24338;DHT22;12457;50.832;4.346;2022-10-17T06:56:01;17.80;99.90
24338;DHT22;12457;50.832;4.346;2022-10-17T06:58:29;17.80;99.90
24338;DHT22;12457;50.832;4.346;2022-10-17T07:01:05;17.90;99.90
24338;DHT22;12457;50.832;4.346;2022-10-17T07:03:31;17.70;99.90
24338;DHT22;12457;50.832;4.346;2022-10-17T07:05:57;17.80;99.90
24338;DHT22;12457;50.832;4.346;2022-10-17T07:08:24;17.90;99.90
24338;DHT22;12457;50.832;4.346;2022-10-17T07:10:53;17.90;99.90
24338;DHT22;12457;50.832;4.346;2022-10-17T07:13:19;18.00;99.90
24338;DHT22;12457;50.832;4.346;2022-10-17T07:15:45;17.90;99.90
24338;DHT22;12457;50.832;4.346;2022-10-17T07:18:10;18.00;99.90
24338;DHT22;12457;50.832;4.346;2022-10-17T07:20:36;18.00;99.90
24338;DHT22;12457;50.832;4.346;2022-10-17T07:23:02;18.00;99.90
24338;DHT22;12457;50.832;4.346;2022-10-17T07:25:28;18.00;99.90
24338;DHT22;12457;50.832;4.346;2022-10-17T07:27:54;17.90;99.90
24338;DHT22;12457;50.832;4.346;2022-10-17T07:30:20;17.90;99.90
24338;DHT22;12457;50.832;4.346;2022-10-17T07:32:46;17.90;99.90
24338;DHT22;12457;50.832;4.346;2022-10-17T07:35:12;17.80;99.90
24338;DHT22;12457;50.832;4.346;2022-10-17T07:37:38;17.80;99.90
24338;DHT22;12457;50.832;4.346;2022-10-17T07:40:06;17.80;99.90
24338;DHT22;12457;50.832;4.346;2022-10-17T07:42:32;17.70;99.90
24338;DHT22;12457;50.832;4.346;2022-10-17T07:44:58;17.70;99.90
24338;DHT22;12457;50.832;4.346;2022-10-17T07:47:24;17.60;99.90
24338;DHT22;12457;50.832;4.346;2022-10-17T07:49:49;17.60;99.90
24338;DHT22;12457;50.832;4.346;2022-10-17T07:52:16;17.60;99.90
24338;DHT22;12457;50.832;4.346;2022-10-17T07:54:42;17.50;99.90
24338;DHT22;12457;50.832;4.346;2022-10-17T07:57:09;17.50;99.90
24338;DHT22;12457;50.832;4.346;2022-10-17T07:59:36;17.50;99.90
24338;DHT22;12457;50.832;4.346;2022-10-17T08:02:02;17.50;99.90
24338;DHT22;12457;50.832;4.346;2022-10-17T08:04:28;17.60;99.90
24338;DHT22;12457;50.832;4.346;2022-10-17T08:06:54;17.60;99.90
24338;DHT22;12457;50.832;4.346;2022-10-17T08:09:20;17.70;99.90
24338;DHT22;12457;50.832;4.346;2022-10-17T08:11:46;17.60;99.90
24338;DHT22;12457;50.832;4.346;2022-10-17T08:14:12;17.60;99.90
24338;DHT22;12457;50.832;4.346;2022-10-17T08:16:39;17.60;99.90
24338;DHT22;12457;50.832;4.346;2022-10-17T08:19:05;17.50;99.90
24338;DHT22;12457;50.832;4.346;2022-10-17T08:21:33;17.50;99.90
24338;DHT22;12457;50.832;4.346;2022-10-17T08:23:59;17.50;99.90
24338;DHT22;12457;50.832;4.346;2022-10-17T08:26:27;17.50;99.90
24338;DHT22;12457;50.832;4.346;2022-10-17T08:28:53;17.50;99.90
24338;DHT22;12457;50.832;4.346;2022-10-17T08:31:20;17.50;99.90
24338;DHT22;12457;50.832;4.346;2022-10-17T08:33:46;17.50;99.90
24338;DHT22;12457;50.832;4.346;2022-10-17T08:36:14;17.50;99.90
24338;DHT22;12457;50.832;4.346;2022-10-17T08:38:41;17.50;99.90
24338;DHT22;12457;50.832;4.346;2022-10-17T08:46:53;17.90;99.90
24338;DHT22;12457;50.832;4.346;2022-10-17T08:52:29;18.00;99.90
24338;DHT22;12457;50.832;4.346;2022-10-17T08:54:56;18.10;99.90
24338;DHT22;12457;50.832;4.346;2022-10-17T08:57:22;18.10;99.90
24338;DHT22;12457;50.832;4.346;2022-10-17T08:59:52;18.10;99.90
24338;DHT22;12457;50.832;4.346;2022-10-17T09:05:33;18.00;99.90
24338;DHT22;12457;50.832;4.346;2022-10-17T09:08:09;17.90;99.90
24338;DHT22;12457;50.832;4.346;2022-10-17T09:10:55;18.00;99.90
24338;DHT22;12457;50.832;4.346;2022-10-17T09:21:55;18.00;99.90
24338;DHT22;12457;50.832;4.346;2022-10-17T09:24:47;18.00;99.90
24338;DHT22;12457;50.832;4.346;2022-10-17T09:29:51;17.80;99.90
24338;DHT22;12457;50.832;4.346;2022-10-17T09:32:22;17.80;99.90
24338;DHT22;12457;50.832;4.346;2022-10-17T09:34:48;17.80;99.90
24338;DHT22;12457;50.832;4.346;2022-10-17T09:37:15;17.80;99.90
24338;DHT22;12457;50.832;4.346;2022-10-17T09:39:42;17.80;99.90
24338;DHT22;12457;50.832;4.346;2022-10-17T09:42:14;17.90;99.90
24338;DHT22;12457;50.832;4.346;2022-10-17T09:45:11;17.90;99.90
24338;DHT22;12457;50.832;4.346;2022-10-17T09:47:41;17.90;99.90
24338;DHT22;12457;50.832;4.346;2022-10-17T09:50:25;18.00;99.90
24338;DHT22;12457;50.832;4.346;2022-10-17T09:52:52;18.10;99.90
24338;DHT22;12457;50.832;4.346;2022-10-17T09:57:59;18.10;99.90
24338;DHT22;12457;50.832;4.346;2022-10-17T10:00:45;18.10;99.90
24338;DHT22;12457;50.832;4.346;2022-10-17T10:05:38;18.10;99.90
24338;DHT22;12457;50.832;4.346;2022-10-17T10:08:14;18.20;99.90
24338;DHT22;12457;50.832;4.346;2022-10-17T10:10:41;18.10;99.90
24338;DHT22;12457;50.832;4.346;2022-10-17T10:15:42;18.10;99.90
24338;DHT22;12457;50.832;4.346;2022-10-17T10:18:27;18.20;99.90
24338;DHT22;12457;50.832;4.346;2022-10-17T10:21:14;18.30;99.90
24338;DHT22;12457;50.832;4.346;2022-10-17T10:23:42;18.30;99.90
24338;DHT22;12457;50.832;4.346;2022-10-17T10:26:18;18.40;99.90
24338;DHT22;12457;50.832;4.346;2022-10-17T10:29:01;18.50;99.90
24338;DHT22;12457;50.832;4.346;2022-10-17T10:31:36;18.60;99.90
24338;DHT22;12457;50.832;4.346;2022-10-17T10:36:48;18.90;99.90
24338;DHT22;12457;50.832;4.346;2022-10-17T10:42:34;19.10;99.90
24338;DHT22;12457;50.832;4.346;2022-10-17T10:45:15;19.00;99.90
24338;DHT22;12457;50.832;4.346;2022-10-17T10:50:53;18.90;99.90
24338;DHT22;12457;50.832;4.346;2022-10-17T10:53:42;18.90;99.90
24338;DHT22;12457;50.832;4.346;2022-10-17T10:58:48;18.80;99.90
24338;DHT22;12457;50.832;4.346;2022-10-17T11:01:47;18.70;99.90
24338;DHT22;12457;50.832;4.346;2022-10-17T11:15:02;18.60;99.90
24338;DHT22;12457;50.832;4.346;2022-10-17T11:17:38;18.60;99.90
24338;DHT22;12457;50.832;4.346;2022-10-17T11:20:14;18.60;99.90
24338;DHT22;12457;50.832;4.346;2022-10-17T11:22:52;18.70;99.90
24338;DHT22;12457;50.832;4.346;2022-10-17T11:25:34;18.80;99.90
24338;DHT22;12457;50.832;4.346;2022-10-17T11:28:01;18.70;99.90
24338;DHT22;12457;50.832;4.346;2022-10-17T11:30:33;18.60;99.90
24338;DHT22;12457;50.832;4.346;2022-10-17T11:33:03;18.60;99.90
24338;DHT22;12457;50.832;4.346;2022-10-17T11:35:36;18.70;99.90
24338;DHT22;12457;50.832;4.346;2022-10-17T11:40:52;18.50;99.90
24338;DHT22;12457;50.832;4.346;2022-10-17T11:43:30;18.50;99.90
24338;DHT22;12457;50.832;4.346;2022-10-17T11:48:57;18.60;99.90
24338;DHT22;12457;50.832;4.346;2022-10-17T11:51:25;18.70;99.90
24338;DHT22;12457;50.832;4.346;2022-10-17T11:54:09;18.80;99.90
24338;DHT22;12457;50.832;4.346;2022-10-17T11:56:50;18.90;99.90
24338;DHT22;12457;50.832;4.346;2022-10-17T12:02:10;18.80;99.90
24338;DHT22;12457;50.832;4.346;2022-10-17T12:10:45;18.80;99.90
24338;DHT22;12457;50.832;4.346;2022-10-17T12:15:53;18.90;99.90
24338;DHT22;12457;50.832;4.346;2022-10-17T12:18:19;19.10;99.90
24338;DHT22;12457;50.832;4.346;2022-10-17T12:20:55;19.10;99.90
24338;DHT22;12457;50.832;4.346;2022-10-17T12:23:28;19.00;99.90
24338;DHT22;12457;50.832;4.346;2022-10-17T12:28:43;19.00;99.90
24338;DHT22;12457;50.832;4.346;2022-10-17T12:38:42;18.80;99.90
24338;DHT22;12457;50.832;4.346;2022-10-17T12:41:08;18.90;99.90
24338;DHT22;12457;50.832;4.346;2022-10-17T12:43:54;18.90;99.90
24338;DHT22;12457;50.832;4.346;2022-10-17T12:49:38;18.90;99.90
24338;DHT22;12457;50.832;4.346;2022-10-17T12:54:56;18.90;99.90
24338;DHT22;12457;50.832;4.346;2022-10-17T12:57:40;18.90;99.90
24338;DHT22;12457;50.832;4.346;2022-10-17T13:02:57;18.90;99.90
24338;DHT22;12457;50.832;4.346;2022-10-17T13:05:33;18.90;99.90
24338;DHT22;12457;50.832;4.346;2022-10-17T13:08:05;19.00;99.90
24338;DHT22;12457;50.832;4.346;2022-10-17T13:10:34;19.00;99.90
24338;DHT22;12457;50.832;4.346;2022-10-17T13:13:21;19.10;99.90
24338;DHT22;12457;50.832;4.346;2022-10-17T13:15:52;19.10;99.90
24338;DHT22;12457;50.832;4.346;2022-10-17T13:18:21;19.10;99.90
24338;DHT22;12457;50.832;4.346;2022-10-17T13:21:12;19.10;99.90
24338;DHT22;12457;50.832;4.346;2022-10-17T13:23:38;19.30;99.90
24338;DHT22;12457;50.832;4.346;2022-10-17T13:26:05;19.30;99.90
24338;DHT22;12457;50.832;4.346;2022-10-17T13:28:31;19.30;99.90
24338;DHT22;12457;50.832;4.346;2022-10-17T13:30:57;19.40;99.90
24338;DHT22;12457;50.832;4.346;2022-10-17T13:33:36;19.50;99.90
24338;DHT22;12457;50.832;4.346;2022-10-17T13:36:06;19.50;99.90
24338;DHT22;12457;50.832;4.346;2022-10-17T13:38:34;19.50;99.90
24338;DHT22;12457;50.832;4.346;2022-10-17T13:41:01;19.50;99.90
24338;DHT22;12457;50.832;4.346;2022-10-17T13:43:29;19.50;99.90
24338;DHT22;12457;50.832;4.346;2022-10-17T13:45:59;19.40;99.90
24338;DHT22;12457;50.832;4.346;2022-10-17T13:48:30;19.40;99.90
24338;DHT22;12457;50.832;4.346;2022-10-17T13:50:58;19.30;99.90
24338;DHT22;12457;50.832;4.346;2022-10-17T13:53:33;19.30;99.90
24338;DHT22;12457;50.832;4.346;2022-10-17T13:56:01;19.30;99.90
24338;DHT22;12457;50.832;4.346;2022-10-17T13:58:43;19.40;99.90
24338;DHT22;12457;50.832;4.346;2022-10-17T14:01:10;19.30;99.90
24338;DHT22;12457;50.832;4.346;2022-10-17T14:03:37;19.30;99.90
24338;DHT22;12457;50.832;4.346;2022-10-17T14:06:27;19.30;99.90
24338;DHT22;12457;50.832;4.346;2022-10-17T14:08:59;19.20;99.90
24338;DHT22;12457;50.832;4.346;2022-10-17T14:11:40;19.30;99.90
24338;DHT22;12457;50.832;4.346;2022-10-17T14:14:18;19.40;99.90
24338;DHT22;12457;50.832;4.346;2022-10-17T14:16:45;19.50;99.90
24338;DHT22;12457;50.832;4.346;2022-10-17T14:19:30;19.50;99.90
24338;DHT22;12457;50.832;4.346;2022-10-17T14:24:49;19.60;99.90
24338;DHT22;12457;50.832;4.346;2022-10-17T14:27:52;19.50;99.90
24338;DHT22;12457;50.832;4.346;2022-10-17T14:32:55;19.50;99.90
24338;DHT22;12457;50.832;4.346;2022-10-17T14:35:22;19.60;99.90
24338;DHT22;12457;50.832;4.346;2022-10-17T14:37:51;19.60;99.90
24338;DHT22;12457;50.832;4.346;2022-10-17T14:40:20;19.60;99.90
24338;DHT22;12457;50.832;4.346;2022-10-17T14:42:51;19.60;99.90
24338;DHT22;12457;50.832;4.346;2022-10-17T14:47:58;19.40;99.90
24338;DHT22;12457;50.832;4.346;2022-10-17T14:50:27;19.40;99.90
24338;DHT22;12457;50.832;4.346;2022-10-17T14:55:35;19.50;99.90
24338;DHT22;12457;50.832;4.346;2022-10-17T14:58:14;19.40;99.90
24338;DHT22;12457;50.832;4.346;2022-10-17T15:00:39;19.30;99.90
24338;DHT22;12457;50.832;4.346;2022-10-17T15:03:05;19.40;99.90
24338;DHT22;12457;50.832;4.346;2022-10-17T15:05:31;19.50;99.90
24338;DHT22;12457;50.832;4.346;2022-10-17T15:07:56;19.50;99.90
24338;DHT22;12457;50.832;4.346;2022-10-17T15:10:30;19.40;99.90
24338;DHT22;12457;50.832;4.346;2022-10-17T15:12:56;19.30;99.90
24338;DHT22;12457;50.832;4.346;2022-10-17T15:15:22;19.30;99.90
24338;DHT22;12457;50.832;4.346;2022-10-17T15:17:47;19.20;99.90
24338;DHT22;12457;50.832;4.346;2022-10-17T15:20:15;19.20;99.90
24338;DHT22;12457;50.832;4.346;2022-10-17T15:22:41;19.20;99.90
24338;DHT22;12457;50.832;4.346;2022-10-17T15:25:07;19.20;99.90
24338;DHT22;12457;50.832;4.346;2022-10-17T15:27:33;19.10;99.90
24338;DHT22;12457;50.832;4.346;2022-10-17T15:29:59;19.10;99.90
24338;DHT22;12457;50.832;4.346;2022-10-17T15:32:25;19.20;99.90
24338;DHT22;12457;50.832;4.346;2022-10-17T15:34:50;19.10;99.90
24338;DHT22;12457;50.832;4.346;2022-10-17T15:37:21;19.10;99.90
24338;DHT22;12457;50.832;4.346;2022-10-17T15:39:52;19.00;99.90
24338;DHT22;12457;50.832;4.346;2022-10-17T15:42:20;19.00;99.90
24338;DHT22;12457;50.832;4.346;2022-10-17T15:44:46;19.00;99.90
24338;DHT22;12457;50.832;4.346;2022-10-17T15:47:35;19.00;99.90
24338;DHT22;12457;50.832;4.346;2022-10-17T15:50:02;19.00;99.90
24338;DHT22;12457;50.832;4.346;2022-10-17T15:52:29;18.90;99.90
24338;DHT22;12457;50.832;4.346;2022-10-17T15:54:54;18.80;99.90
24338;DHT22;12457;50.832;4.346;2022-10-17T15:57:27;18.80;99.90
24338;DHT22;12457;50.832;4.346;2022-10-17T15:59:54;18.80;99.90
24338;DHT22;12457;50.832;4.346;2022-10-17T16:02:22;18.70;99.90
24338;DHT22;12457;50.832;4.346;2022-10-17T16:04:50;18.70;99.90
24338;DHT22;12457;50.832;4.346;2022-10-17T16:07:18;18.70;99.90
24338;DHT22;12457;50.832;4.346;2022-10-17T16:09:45;18.60;99.90
24338;DHT22;12457;50.832;4.346;2022-10-17T16:12:26;18.50;99.90
24338;DHT22;12457;50.832;4.346;2022-10-17T16:14:52;18.50;99.90
24338;DHT22;12457;50.832;4.346;2022-10-17T16:17:18;18.50;99.90
24338;DHT22;12457;50.832;4.346;2022-10-17T16:19:44;18.40;99.90
24338;DHT22;12457;50.832;4.346;2022-10-17T16:22:20;18.30;99.90
24338;DHT22;12457;50.832;4.346;2022-10-17T16:24:47;18.40;99.90
24338;DHT22;12457;50.832;4.346;2022-10-17T16:27:13;18.40;99.90
24338;DHT22;12457;50.832;4.346;2022-10-17T16:29:38;18.40;99.90
24338;DHT22;12457;50.832;4.346;2022-10-17T16:32:04;18.40;99.90
24338;DHT22;12457;50.832;4.346;2022-10-17T16:34:29;18.40;99.90
24338;DHT22;12457;50.832;4.346;2022-10-17T16:36:56;18.40;99.90
24338;DHT22;12457;50.832;4.346;2022-10-17T16:39:22;18.40;99.90
24338;DHT22;12457;50.832;4.346;2022-10-17T16:41:49;18.30;99.90
24338;DHT22;12457;50.832;4.346;2022-10-17T16:44:14;18.30;99.90
24338;DHT22;12457;50.832;4.346;2022-10-17T16:46:41;18.30;99.90
24338;DHT22;12457;50.832;4.346;2022-10-17T16:49:09;18.30;99.90
24338;DHT22;12457;50.832;4.346;2022-10-17T16:51:35;18.20;99.90
24338;DHT22;12457;50.832;4.346;2022-10-17T16:54:01;18.20;99.90
24338;DHT22;12457;50.832;4.346;2022-10-17T16:56:27;18.00;99.90
24338;DHT22;12457;50.832;4.346;2022-10-17T16:58:57;18.10;99.90
24338;DHT22;12457;50.832;4.346;2022-10-17T17:01:24;18.10;99.90
24338;DHT22;12457;50.832;4.346;2022-10-17T17:03:51;18.10;99.90
24338;DHT22;12457;50.832;4.346;2022-10-17T17:06:19;18.10;99.90
24338;DHT22;12457;50.832;4.346;2022-10-17T17:08:46;18.10;99.90
24338;DHT22;12457;50.832;4.346;2022-10-17T17:11:14;18.10;99.90
24338;DHT22;12457;50.832;4.346;2022-10-17T17:13:42;18.20;99.90
24338;DHT22;12457;50.832;4.346;2022-10-17T17:16:13;18.20;99.90
24338;DHT22;12457;50.832;4.346;2022-10-17T17:18:39;18.20;99.90
24338;DHT22;12457;50.832;4.346;2022-10-17T17:21:06;18.30;99.90
24338;DHT22;12457;50.832;4.346;2022-10-17T17:23:35;18.20;99.90
24338;DHT22;12457;50.832;4.346;2022-10-17T17:26:04;18.00;99.90
24338;DHT22;12457;50.832;4.346;2022-10-17T17:28:30;18.10;99.90
24338;DHT22;12457;50.832;4.346;2022-10-17T17:30:56;18.00;99.90
24338;DHT22;12457;50.832;4.346;2022-10-17T17:33:24;18.10;99.90
24338;DHT22;12457;50.832;4.346;2022-10-17T17:35:58;18.10;99.90
24338;DHT22;12457;50.832;4.346;2022-10-17T17:38:25;18.10;99.90
24338;DHT22;12457;50.832;4.346;2022-10-17T17:40:51;18.00;99.90
24338;DHT22;12457;50.832;4.346;2022-10-17T17:43:17;18.00;99.90
24338;DHT22;12457;50.832;4.346;2022-10-17T17:45:43;17.90;99.90
24338;DHT22;12457;50.832;4.346;2022-10-17T17:48:08;17.80;99.90
24338;DHT22;12457;50.832;4.346;2022-10-17T17:50:38;17.80;99.90
24338;DHT22;12457;50.832;4.346;2022-10-17T17:53:05;17.80;99.90
24338;DHT22;12457;50.832;4.346;2022-10-17T17:55:31;17.70;99.90
24338;DHT22;12457;50.832;4.346;2022-10-17T17:57:57;17.70;99.90